Terminal Aerodrome Forecast
Issued by NWS

Home | Current Version | Previous Version | Graphics & Text | Print | Product List | Glossary On
Versions: 1 2 3 4 5 6 7 8 9 10 11 12 13 14 15 16 17
000
FTUS43 KGRB 181400 AAB
TAFATW
TAF AMD
KATW 181425Z 1814/1912 34006KT P6SM BKN025
     FM181800 36008KT P6SM SCT030 BKN100
      TEMPO 1818/1822 BKN030
     FM182200 04008KT P6SM SCT100
     FM190000 10006KT P6SM SCT100
      TEMPO 1908/1912 BKN100=

USA.gov is the U.S. government's official web portal to all federal, state and local government web resources and services.